SAMM/LGS METAR and TAF weather

Enter ICAO airport designator
Station Type Date Time Source
SAMM METAR 2023/01/19 19:10 UTC NOAA

SAMM 191910Z 04004G14KT 3000 +TSRA SCT030 SCT040 24/17 Q1015


Station Type Date Time Source
SAMM Decoded METAR 2023/01/19 19:10 UTC NOAA

Malargue Aerodrome, Argentina (SAMM) 35-30S 069-35W 1425M
Jan 19, 2023 - 02:10 PM EST / 2023.01.19 1910 UTC
Wind: from the NE (040 degrees) at 5 MPH (4 KT) gusting to 16 MPH (14 KT):0
Visibility: 1 mile(s):0
Sky conditions: partly cloudy
Weather: heavy rain with thunder
Temperature: 75 F (24 C)
Dew Point: 62 F (17 C)
Relative Humidity: 64%
Pressure (altimeter): 29.97 in. Hg (1015 hPa)
ob: SAMM 191910Z 04004G14KT 3000 +TSRA SCT030 SCT040 24/17 Q1015
cycle: 19

Station Type Date Time Source
SAMM TAF UTC NOAA

Error!

Example: see airport list